sensor_id;sensor_type;location;lat;lon;timestamp;pressure;altitude;pressure_sealevel;temperature;humidity
17649;BME280;8943;51.110;-4.158;2022-12-29T00:00:20;98921.88;;;14.64;53.48
17649;BME280;8943;51.110;-4.158;2022-12-29T00:02:49;98913.84;;;14.41;54.46
17649;BME280;8943;51.110;-4.158;2022-12-29T00:05:23;98915.91;;;14.16;55.01
17649;BME280;8943;51.110;-4.158;2022-12-29T00:07:53;98918.00;;;14.06;55.79
17649;BME280;8943;51.110;-4.158;2022-12-29T00:10:21;98904.38;;;13.93;56.18
17649;BME280;8943;51.110;-4.158;2022-12-29T00:12:50;98904.03;;;13.96;56.08
17649;BME280;8943;51.110;-4.158;2022-12-29T00:15:35;98897.72;;;13.89;56.99
17649;BME280;8943;51.110;-4.158;2022-12-29T00:18:08;98900.69;;;13.94;56.94
17649;BME280;8943;51.110;-4.158;2022-12-29T00:20:43;98911.78;;;13.91;57.23
17649;BME280;8943;51.110;-4.158;2022-12-29T00:23:29;98895.09;;;13.81;57.80
17649;BME280;8943;51.110;-4.158;2022-12-29T00:26:13;98887.06;;;13.81;57.92
17649;BME280;8943;51.110;-4.158;2022-12-29T00:28:59;98916.19;;;13.76;58.43
17649;BME280;8943;51.110;-4.158;2022-12-29T00:31:45;98889.38;;;13.84;58.37
17649;BME280;8943;51.110;-4.158;2022-12-29T00:34:32;98868.31;;;13.81;58.41
17649;BME280;8943;51.110;-4.158;2022-12-29T00:37:20;98881.16;;;13.85;58.30
17649;BME280;8943;51.110;-4.158;2022-12-29T00:40:09;98879.66;;;13.91;58.44
17649;BME280;8943;51.110;-4.158;2022-12-29T00:42:55;98892.31;;;13.97;58.25
17649;BME280;8943;51.110;-4.158;2022-12-29T00:45:40;98872.50;;;14.06;57.95
17649;BME280;8943;51.110;-4.158;2022-12-29T00:48:08;98873.41;;;14.13;57.94
17649;BME280;8943;51.110;-4.158;2022-12-29T00:50:37;98896.16;;;14.17;57.53
17649;BME280;8943;51.110;-4.158;2022-12-29T00:53:17;98881.41;;;14.22;57.55
17649;BME280;8943;51.110;-4.158;2022-12-29T00:55:47;98881.00;;;14.25;57.28
17649;BME280;8943;51.110;-4.158;2022-12-29T00:58:18;98890.72;;;14.26;57.57
17649;BME280;8943;51.110;-4.158;2022-12-29T01:00:47;98878.47;;;14.31;57.45
17649;BME280;8943;51.110;-4.158;2022-12-29T01:03:15;98870.41;;;14.31;56.96
17649;BME280;8943;51.110;-4.158;2022-12-29T01:05:43;98880.31;;;14.31;57.34
17649;BME280;8943;51.110;-4.158;2022-12-29T01:08:12;98878.25;;;14.33;57.05
17649;BME280;8943;51.110;-4.158;2022-12-29T01:10:43;98889.47;;;14.36;57.28
17649;BME280;8943;51.110;-4.158;2022-12-29T01:13:11;98875.03;;;14.37;57.17
17649;BME280;8943;51.110;-4.158;2022-12-29T01:15:39;98882.88;;;14.39;57.34
17649;BME280;8943;51.110;-4.158;2022-12-29T01:18:07;98913.09;;;14.33;57.36
17649;BME280;8943;51.110;-4.158;2022-12-29T01:20:36;98898.31;;;14.37;57.82
17649;BME280;8943;51.110;-4.158;2022-12-29T01:23:04;98899.59;;;14.26;58.03
17649;BME280;8943;51.110;-4.158;2022-12-29T01:25:32;98873.06;;;14.16;58.01
17649;BME280;8943;51.110;-4.158;2022-12-29T01:28:02;98908.97;;;14.07;58.32
17649;BME280;8943;51.110;-4.158;2022-12-29T01:30:32;98910.66;;;14.00;58.64
17649;BME280;8943;51.110;-4.158;2022-12-29T01:33:01;98905.69;;;13.97;59.19
17649;BME280;8943;51.110;-4.158;2022-12-29T01:35:32;98936.16;;;13.96;59.53
17649;BME280;8943;51.110;-4.158;2022-12-29T01:38:00;98919.25;;;13.96;59.71
17649;BME280;8943;51.110;-4.158;2022-12-29T01:40:29;98923.13;;;13.93;59.71
17649;BME280;8943;51.110;-4.158;2022-12-29T01:42:58;98910.63;;;13.85;60.51
17649;BME280;8943;51.110;-4.158;2022-12-29T01:45:29;98907.78;;;13.87;60.63
17649;BME280;8943;51.110;-4.158;2022-12-29T01:48:00;98914.50;;;13.83;61.13
17649;BME280;8943;51.110;-4.158;2022-12-29T01:50:32;98926.88;;;13.84;61.14
17649;BME280;8943;51.110;-4.158;2022-12-29T01:53:05;98901.47;;;13.80;61.57
17649;BME280;8943;51.110;-4.158;2022-12-29T01:55:38;98935.41;;;13.79;61.94
17649;BME280;8943;51.110;-4.158;2022-12-29T01:58:10;98949.94;;;13.85;61.61
17649;BME280;8943;51.110;-4.158;2022-12-29T02:00:41;98975.38;;;13.81;61.83
17649;BME280;8943;51.110;-4.158;2022-12-29T02:03:10;98976.38;;;13.88;61.72
17649;BME280;8943;51.110;-4.158;2022-12-29T02:05:44;98999.13;;;13.84;61.94
17649;BME280;8943;51.110;-4.158;2022-12-29T02:08:13;98998.50;;;13.82;61.98
17649;BME280;8943;51.110;-4.158;2022-12-29T02:10:42;99005.31;;;13.84;62.01
17649;BME280;8943;51.110;-4.158;2022-12-29T02:13:14;99007.88;;;13.78;62.12
17649;BME280;8943;51.110;-4.158;2022-12-29T02:15:53;99022.09;;;13.78;62.37
17649;BME280;8943;51.110;-4.158;2022-12-29T02:18:34;99033.94;;;13.84;61.94
17649;BME280;8943;51.110;-4.158;2022-12-29T02:21:44;99039.47;;;13.82;62.43
17649;BME280;8943;51.110;-4.158;2022-12-29T02:27:42;99089.75;;;13.95;61.53
17649;BME280;8943;51.110;-4.158;2022-12-29T02:30:36;99079.75;;;13.89;61.21
17649;BME280;8943;51.110;-4.158;2022-12-29T02:33:23;99093.50;;;13.86;61.26
17649;BME280;8943;51.110;-4.158;2022-12-29T02:36:03;99087.97;;;13.87;61.06
17649;BME280;8943;51.110;-4.158;2022-12-29T02:38:47;99108.19;;;13.90;60.97
17649;BME280;8943;51.110;-4.158;2022-12-29T02:41:23;99144.50;;;13.93;60.93
17649;BME280;8943;51.110;-4.158;2022-12-29T02:43:56;99147.00;;;13.94;60.97
17649;BME280;8943;51.110;-4.158;2022-12-29T02:46:34;99153.34;;;14.01;59.72
17649;BME280;8943;51.110;-4.158;2022-12-29T02:49:07;99156.19;;;14.00;60.43
17649;BME280;8943;51.110;-4.158;2022-12-29T02:51:45;99161.69;;;14.06;59.92
17649;BME280;8943;51.110;-4.158;2022-12-29T02:54:17;99172.03;;;14.09;58.75
17649;BME280;8943;51.110;-4.158;2022-12-29T02:57:05;99169.06;;;14.04;58.88
17649;BME280;8943;51.110;-4.158;2022-12-29T02:59:35;99181.28;;;14.07;58.57
17649;BME280;8943;51.110;-4.158;2022-12-29T03:02:27;99196.66;;;14.05;58.78
17649;BME280;8943;51.110;-4.158;2022-12-29T03:08:03;99219.78;;;13.98;58.46
17649;BME280;8943;51.110;-4.158;2022-12-29T03:10:39;99223.31;;;13.98;57.64
17649;BME280;8943;51.110;-4.158;2022-12-29T03:13:15;99238.53;;;13.98;57.47
17649;BME280;8943;51.110;-4.158;2022-12-29T03:16:10;99242.22;;;13.97;57.25
17649;BME280;8943;51.110;-4.158;2022-12-29T03:18:49;99276.16;;;14.04;56.37
17649;BME280;8943;51.110;-4.158;2022-12-29T03:21:24;99262.63;;;14.06;56.25
17649;BME280;8943;51.110;-4.158;2022-12-29T03:24:15;99275.84;;;14.07;55.29
17649;BME280;8943;51.110;-4.158;2022-12-29T03:26:45;99265.63;;;14.11;54.93
17649;BME280;8943;51.110;-4.158;2022-12-29T03:29:16;99268.78;;;14.14;55.00
17649;BME280;8943;51.110;-4.158;2022-12-29T03:31:45;99281.19;;;14.15;54.61
17649;BME280;8943;51.110;-4.158;2022-12-29T03:34:19;99277.00;;;14.13;54.84
17649;BME280;8943;51.110;-4.158;2022-12-29T03:36:52;99286.88;;;14.12;54.91
17649;BME280;8943;51.110;-4.158;2022-12-29T03:39:25;99303.97;;;14.11;54.51
17649;BME280;8943;51.110;-4.158;2022-12-29T03:41:58;99296.44;;;14.07;54.79
17649;BME280;8943;51.110;-4.158;2022-12-29T03:44:36;99303.97;;;14.11;54.77
17649;BME280;8943;51.110;-4.158;2022-12-29T03:47:06;99295.59;;;14.06;54.77
17649;BME280;8943;51.110;-4.158;2022-12-29T03:52:41;99309.78;;;14.15;54.23
17649;BME280;8943;51.110;-4.158;2022-12-29T03:55:09;99306.31;;;14.06;54.36
17649;BME280;8943;51.110;-4.158;2022-12-29T03:57:38;99327.72;;;14.06;54.47
17649;BME280;8943;51.110;-4.158;2022-12-29T04:00:08;99328.91;;;14.12;54.02
17649;BME280;8943;51.110;-4.158;2022-12-29T04:02:38;99322.03;;;14.09;53.94
17649;BME280;8943;51.110;-4.158;2022-12-29T04:05:08;99341.09;;;14.14;53.61
17649;BME280;8943;51.110;-4.158;2022-12-29T04:07:37;99334.91;;;14.22;53.71
17649;BME280;8943;51.110;-4.158;2022-12-29T04:10:08;99330.38;;;14.31;53.48
17649;BME280;8943;51.110;-4.158;2022-12-29T04:12:36;99341.91;;;14.31;53.61
17649;BME280;8943;51.110;-4.158;2022-12-29T04:15:05;99341.75;;;14.33;53.80
17649;BME280;8943;51.110;-4.158;2022-12-29T04:17:33;99342.25;;;14.36;54.03
17649;BME280;8943;51.110;-4.158;2022-12-29T04:20:02;99346.72;;;14.44;54.00
17649;BME280;8943;51.110;-4.158;2022-12-29T04:22:44;99347.94;;;14.41;54.32
17649;BME280;8943;51.110;-4.158;2022-12-29T04:25:35;99348.09;;;14.40;54.03
17649;BME280;8943;51.110;-4.158;2022-12-29T04:28:22;99349.13;;;14.23;54.89
17649;BME280;8943;51.110;-4.158;2022-12-29T04:30:52;99361.88;;;14.12;54.61
17649;BME280;8943;51.110;-4.158;2022-12-29T04:33:37;99371.09;;;14.02;55.29
17649;BME280;8943;51.110;-4.158;2022-12-29T04:36:11;99383.97;;;13.98;55.57
17649;BME280;8943;51.110;-4.158;2022-12-29T04:38:40;99373.56;;;13.95;55.49
17649;BME280;8943;51.110;-4.158;2022-12-29T04:41:11;99386.97;;;14.03;55.41
17649;BME280;8943;51.110;-4.158;2022-12-29T04:43:40;99407.41;;;14.12;55.02
17649;BME280;8943;51.110;-4.158;2022-12-29T04:46:08;99392.81;;;13.90;55.49
17649;BME280;8943;51.110;-4.158;2022-12-29T04:48:37;99385.94;;;13.63;56.42
17649;BME280;8943;51.110;-4.158;2022-12-29T04:51:27;99387.56;;;13.40;57.41
17649;BME280;8943;51.110;-4.158;2022-12-29T04:53:56;99400.25;;;13.30;58.28
17649;BME280;8943;51.110;-4.158;2022-12-29T04:56:31;99407.09;;;13.24;58.40
17649;BME280;8943;51.110;-4.158;2022-12-29T04:59:13;99404.88;;;13.20;58.14
17649;BME280;8943;51.110;-4.158;2022-12-29T05:02:21;99408.03;;;13.15;58.65
17649;BME280;8943;51.110;-4.158;2022-12-29T05:04:53;99405.69;;;13.20;58.89
17649;BME280;8943;51.110;-4.158;2022-12-29T05:07:29;99432.34;;;13.30;58.80
17649;BME280;8943;51.110;-4.158;2022-12-29T05:10:03;99418.66;;;13.41;58.70
17649;BME280;8943;51.110;-4.158;2022-12-29T05:12:40;99422.38;;;13.48;58.71
17649;BME280;8943;51.110;-4.158;2022-12-29T05:15:12;99423.72;;;13.60;58.04
17649;BME280;8943;51.110;-4.158;2022-12-29T05:17:56;99417.75;;;13.67;58.37
17649;BME280;8943;51.110;-4.158;2022-12-29T05:20:28;99451.19;;;13.62;58.32
17649;BME280;8943;51.110;-4.158;2022-12-29T05:22:57;99454.50;;;13.56;58.47
17649;BME280;8943;51.110;-4.158;2022-12-29T05:25:59;99454.81;;;13.45;58.48
17649;BME280;8943;51.110;-4.158;2022-12-29T05:29:00;99458.78;;;13.33;58.35
17649;BME280;8943;51.110;-4.158;2022-12-29T05:31:33;99474.47;;;13.28;58.75
17649;BME280;8943;51.110;-4.158;2022-12-29T05:34:03;99470.94;;;13.27;58.52
17649;BME280;8943;51.110;-4.158;2022-12-29T05:36:31;99474.31;;;13.29;58.47
17649;BME280;8943;51.110;-4.158;2022-12-29T05:39:03;99489.84;;;13.26;58.57
17649;BME280;8943;51.110;-4.158;2022-12-29T05:41:32;99491.38;;;13.28;58.67
17649;BME280;8943;51.110;-4.158;2022-12-29T05:44:01;99481.16;;;13.32;58.85
17649;BME280;8943;51.110;-4.158;2022-12-29T05:46:29;99480.69;;;13.36;58.67
17649;BME280;8943;51.110;-4.158;2022-12-29T05:48:59;99472.81;;;13.35;58.64
17649;BME280;8943;51.110;-4.158;2022-12-29T05:51:27;99499.59;;;13.35;58.80
17649;BME280;8943;51.110;-4.158;2022-12-29T05:53:55;99541.38;;;13.36;58.97
17649;BME280;8943;51.110;-4.158;2022-12-29T05:56:24;99532.00;;;13.32;58.11
17649;BME280;8943;51.110;-4.158;2022-12-29T05:58:53;99506.78;;;13.08;57.72
17649;BME280;8943;51.110;-4.158;2022-12-29T06:01:23;99515.31;;;12.86;58.18
17649;BME280;8943;51.110;-4.158;2022-12-29T06:03:52;99542.91;;;12.69;58.52
17649;BME280;8943;51.110;-4.158;2022-12-29T06:06:21;99526.84;;;12.60;59.32
17649;BME280;8943;51.110;-4.158;2022-12-29T06:08:52;99549.66;;;12.55;59.31
17649;BME280;8943;51.110;-4.158;2022-12-29T06:11:22;99523.78;;;12.55;59.15
17649;BME280;8943;51.110;-4.158;2022-12-29T06:13:54;99545.16;;;12.55;59.46
17649;BME280;8943;51.110;-4.158;2022-12-29T06:16:29;99525.16;;;12.59;59.59
17649;BME280;8943;51.110;-4.158;2022-12-29T06:19:12;99537.06;;;12.65;59.87
17649;BME280;8943;51.110;-4.158;2022-12-29T06:21:55;99540.16;;;12.78;59.64
17649;BME280;8943;51.110;-4.158;2022-12-29T06:24:38;99550.13;;;12.94;59.79
17649;BME280;8943;51.110;-4.158;2022-12-29T06:27:11;99542.16;;;13.02;59.55
17649;BME280;8943;51.110;-4.158;2022-12-29T06:29:41;99545.94;;;13.18;58.84
17649;BME280;8943;51.110;-4.158;2022-12-29T06:32:11;99554.03;;;13.26;59.08
17649;BME280;8943;51.110;-4.158;2022-12-29T06:34:40;99658.50;;;13.24;57.54
17649;BME280;8943;51.110;-4.158;2022-12-29T06:37:08;99658.84;;;12.85;56.63
17649;BME280;8943;51.110;-4.158;2022-12-29T06:39:37;99654.44;;;12.31;56.96
17649;BME280;8943;51.110;-4.158;2022-12-29T06:42:05;99580.38;;;11.78;57.64
17649;BME280;8943;51.110;-4.158;2022-12-29T06:44:33;99602.28;;;11.44;59.08
17649;BME280;8943;51.110;-4.158;2022-12-29T06:47:01;99603.44;;;11.32;59.09
17649;BME280;8943;51.110;-4.158;2022-12-29T06:49:30;99597.56;;;11.28;60.01
17649;BME280;8943;51.110;-4.158;2022-12-29T06:51:59;99590.53;;;11.37;60.69
17649;BME280;8943;51.110;-4.158;2022-12-29T06:54:38;99617.97;;;11.57;60.49
17649;BME280;8943;51.110;-4.158;2022-12-29T06:57:06;99610.34;;;11.72;60.13
17649;BME280;8943;51.110;-4.158;2022-12-29T06:59:34;99621.06;;;11.90;60.25
17649;BME280;8943;51.110;-4.158;2022-12-29T07:02:02;99618.75;;;12.04;59.50
17649;BME280;8943;51.110;-4.158;2022-12-29T07:04:32;99604.22;;;12.17;59.07
17649;BME280;8943;51.110;-4.158;2022-12-29T07:07:00;99639.56;;;12.28;58.11
17649;BME280;8943;51.110;-4.158;2022-12-29T07:09:28;99623.16;;;12.41;57.75
17649;BME280;8943;51.110;-4.158;2022-12-29T07:11:56;99660.97;;;12.46;57.36
17649;BME280;8943;51.110;-4.158;2022-12-29T07:14:24;99658.00;;;12.49;57.46
17649;BME280;8943;51.110;-4.158;2022-12-29T07:16:52;99649.69;;;12.25;56.88
17649;BME280;8943;51.110;-4.158;2022-12-29T07:19:21;99634.97;;;11.93;57.75
17649;BME280;8943;51.110;-4.158;2022-12-29T07:21:50;99636.63;;;11.67;58.55
17649;BME280;8943;51.110;-4.158;2022-12-29T07:24:18;99636.38;;;11.50;59.34
17649;BME280;8943;51.110;-4.158;2022-12-29T07:26:46;99641.63;;;11.42;59.76
17649;BME280;8943;51.110;-4.158;2022-12-29T07:29:14;99666.16;;;11.36;60.02
17649;BME280;8943;51.110;-4.158;2022-12-29T07:31:42;99644.84;;;11.36;60.30
17649;BME280;8943;51.110;-4.158;2022-12-29T07:34:10;99648.91;;;11.40;60.29
17649;BME280;8943;51.110;-4.158;2022-12-29T07:36:38;99661.25;;;11.41;60.75
17649;BME280;8943;51.110;-4.158;2022-12-29T07:39:08;99659.69;;;11.48;60.79
17649;BME280;8943;51.110;-4.158;2022-12-29T07:41:36;99660.50;;;11.58;60.99
17649;BME280;8943;51.110;-4.158;2022-12-29T07:44:04;99659.31;;;11.71;61.01
17649;BME280;8943;51.110;-4.158;2022-12-29T07:46:32;99665.38;;;11.82;61.02
17649;BME280;8943;51.110;-4.158;2022-12-29T07:49:20;99656.31;;;11.93;61.20
17649;BME280;8943;51.110;-4.158;2022-12-29T07:51:48;99656.13;;;12.04;60.84
17649;BME280;8943;51.110;-4.158;2022-12-29T07:54:18;99656.06;;;12.14;60.67
17649;BME280;8943;51.110;-4.158;2022-12-29T07:56:46;99653.34;;;12.24;60.67
17649;BME280;8943;51.110;-4.158;2022-12-29T07:59:14;99660.63;;;12.31;60.94
17649;BME280;8943;51.110;-4.158;2022-12-29T08:01:42;99656.91;;;12.42;60.69
17649;BME280;8943;51.110;-4.158;2022-12-29T08:04:11;99660.50;;;12.51;60.44
17649;BME280;8943;51.110;-4.158;2022-12-29T08:06:39;99655.09;;;12.60;60.00
17649;BME280;8943;51.110;-4.158;2022-12-29T08:09:08;99657.00;;;12.68;59.76
17649;BME280;8943;51.110;-4.158;2022-12-29T08:11:45;99695.66;;;12.74;59.47
17649;BME280;8943;51.110;-4.158;2022-12-29T08:14:13;99653.28;;;12.79;59.08
17649;BME280;8943;51.110;-4.158;2022-12-29T08:16:43;99656.31;;;12.84;58.68
17649;BME280;8943;51.110;-4.158;2022-12-29T08:19:12;99658.84;;;12.85;57.99
17649;BME280;8943;51.110;-4.158;2022-12-29T08:21:40;99680.06;;;12.87;57.96
17649;BME280;8943;51.110;-4.158;2022-12-29T08:24:09;99667.41;;;12.89;58.35
17649;BME280;8943;51.110;-4.158;2022-12-29T08:26:38;99728.88;;;12.89;56.60
17649;BME280;8943;51.110;-4.158;2022-12-29T08:31:56;99720.63;;;13.00;54.97
17649;BME280;8943;51.110;-4.158;2022-12-29T08:34:24;99705.25;;;13.02;53.63
17649;BME280;8943;51.110;-4.158;2022-12-29T08:36:52;99707.94;;;13.02;51.94
17649;BME280;8943;51.110;-4.158;2022-12-29T08:39:20;99712.69;;;13.08;51.69
17649;BME280;8943;51.110;-4.158;2022-12-29T08:41:48;99735.13;;;13.15;51.49
17649;BME280;8943;51.110;-4.158;2022-12-29T08:44:17;99750.19;;;13.17;51.91
17649;BME280;8943;51.110;-4.158;2022-12-29T08:46:47;99737.50;;;13.19;51.43
17649;BME280;8943;51.110;-4.158;2022-12-29T08:49:16;99727.91;;;13.26;51.49
17649;BME280;8943;51.110;-4.158;2022-12-29T08:51:45;99742.09;;;13.26;51.85
17649;BME280;8943;51.110;-4.158;2022-12-29T08:54:13;99723.63;;;13.33;52.15
17649;BME280;8943;51.110;-4.158;2022-12-29T08:56:41;99740.06;;;13.38;52.74
17649;BME280;8943;51.110;-4.158;2022-12-29T08:59:09;99736.06;;;13.42;52.92
17649;BME280;8943;51.110;-4.158;2022-12-29T09:01:38;99793.16;;;13.51;52.47
17649;BME280;8943;51.110;-4.158;2022-12-29T09:04:07;99747.16;;;13.47;51.30
17649;BME280;8943;51.110;-4.158;2022-12-29T09:06:43;99746.38;;;13.37;51.11
17649;BME280;8943;51.110;-4.158;2022-12-29T09:09:12;99749.28;;;13.26;50.08
17649;BME280;8943;51.110;-4.158;2022-12-29T09:11:41;99766.16;;;13.08;50.48
17649;BME280;8943;51.110;-4.158;2022-12-29T09:17:23;99795.44;;;11.51;52.28
17649;BME280;8943;51.110;-4.158;2022-12-29T09:20:11;99797.09;;;10.94;56.41
17649;BME280;8943;51.110;-4.158;2022-12-29T09:22:44;99790.22;;;10.92;58.49
17649;BME280;8943;51.110;-4.158;2022-12-29T09:25:13;99782.50;;;10.89;59.16
17649;BME280;8943;51.110;-4.158;2022-12-29T09:27:41;99788.69;;;10.99;59.64
17649;BME280;8943;51.110;-4.158;2022-12-29T09:30:12;99809.47;;;11.05;59.60
17649;BME280;8943;51.110;-4.158;2022-12-29T09:32:41;99805.81;;;11.16;59.87
17649;BME280;8943;51.110;-4.158;2022-12-29T09:35:12;99822.25;;;11.30;60.04
17649;BME280;8943;51.110;-4.158;2022-12-29T09:37:40;99823.41;;;11.47;60.25
17649;BME280;8943;51.110;-4.158;2022-12-29T09:40:22;99815.22;;;11.68;60.84
17649;BME280;8943;51.110;-4.158;2022-12-29T09:43:02;99817.50;;;11.82;60.45
17649;BME280;8943;51.110;-4.158;2022-12-29T09:45:38;99833.75;;;11.99;59.54
17649;BME280;8943;51.110;-4.158;2022-12-29T09:48:14;99832.47;;;12.13;59.04
17649;BME280;8943;51.110;-4.158;2022-12-29T09:50:48;99867.00;;;12.24;58.71
17649;BME280;8943;51.110;-4.158;2022-12-29T09:53:21;99857.16;;;12.24;57.60
17649;BME280;8943;51.110;-4.158;2022-12-29T09:55:55;99847.63;;;12.22;57.71
17649;BME280;8943;51.110;-4.158;2022-12-29T09:58:29;99847.50;;;12.14;58.19
17649;BME280;8943;51.110;-4.158;2022-12-29T10:01:03;99848.47;;;12.13;58.05
17649;BME280;8943;51.110;-4.158;2022-12-29T10:03:40;99836.81;;;12.14;57.61
17649;BME280;8943;51.110;-4.158;2022-12-29T10:06:17;99851.31;;;12.01;57.12
17649;BME280;8943;51.110;-4.158;2022-12-29T10:08:51;99826.47;;;11.91;57.33
17649;BME280;8943;51.110;-4.158;2022-12-29T10:11:31;99849.53;;;11.82;57.29
17649;BME280;8943;51.110;-4.158;2022-12-29T10:14:15;99850.22;;;11.84;57.41
17649;BME280;8943;51.110;-4.158;2022-12-29T10:16:51;99852.88;;;11.94;57.26
17649;BME280;8943;51.110;-4.158;2022-12-29T10:19:33;99852.72;;;12.05;57.13
17649;BME280;8943;51.110;-4.158;2022-12-29T10:22:13;99858.88;;;12.16;56.88
17649;BME280;8943;51.110;-4.158;2022-12-29T10:24:46;99838.34;;;12.26;57.07
17649;BME280;8943;51.110;-4.158;2022-12-29T10:27:18;99847.00;;;12.37;56.86
17649;BME280;8943;51.110;-4.158;2022-12-29T10:29:50;99851.31;;;12.48;56.69
17649;BME280;8943;51.110;-4.158;2022-12-29T10:32:33;99857.47;;;12.58;56.59
17649;BME280;8943;51.110;-4.158;2022-12-29T10:35:05;99865.44;;;12.68;56.58
17649;BME280;8943;51.110;-4.158;2022-12-29T10:37:41;99865.41;;;12.78;56.20
17649;BME280;8943;51.110;-4.158;2022-12-29T10:40:22;99848.19;;;12.90;55.88
17649;BME280;8943;51.110;-4.158;2022-12-29T10:42:58;99851.50;;;13.02;55.65
17649;BME280;8943;51.110;-4.158;2022-12-29T10:45:30;99860.84;;;13.15;55.40
17649;BME280;8943;51.110;-4.158;2022-12-29T10:48:01;99880.53;;;13.24;54.63
17649;BME280;8943;51.110;-4.158;2022-12-29T10:50:34;99898.44;;;13.42;53.95
17649;BME280;8943;51.110;-4.158;2022-12-29T10:53:04;99895.41;;;13.54;53.68
17649;BME280;8943;51.110;-4.158;2022-12-29T10:55:35;99889.66;;;13.67;53.43
17649;BME280;8943;51.110;-4.158;2022-12-29T10:58:07;99936.47;;;13.63;52.01
17649;BME280;8943;51.110;-4.158;2022-12-29T11:00:39;99917.72;;;13.18;52.18
17649;BME280;8943;51.110;-4.158;2022-12-29T11:06:01;99891.34;;;12.21;54.29
17649;BME280;8943;51.110;-4.158;2022-12-29T11:08:36;99899.94;;;11.95;54.99
17649;BME280;8943;51.110;-4.158;2022-12-29T11:11:07;99896.81;;;11.80;55.90
17649;BME280;8943;51.110;-4.158;2022-12-29T11:13:49;99892.88;;;11.75;56.66
17649;BME280;8943;51.110;-4.158;2022-12-29T11:16:27;99888.94;;;11.79;57.12
17649;BME280;8943;51.110;-4.158;2022-12-29T11:18:58;99885.63;;;11.87;57.43
17649;BME280;8943;51.110;-4.158;2022-12-29T11:21:31;99888.41;;;11.95;57.79
17649;BME280;8943;51.110;-4.158;2022-12-29T11:24:01;99884.47;;;12.08;58.03
17649;BME280;8943;51.110;-4.158;2022-12-29T11:26:30;99909.88;;;12.22;57.84
17649;BME280;8943;51.110;-4.158;2022-12-29T11:31:55;99890.25;;;12.60;56.23
17649;BME280;8943;51.110;-4.158;2022-12-29T11:34:26;99900.84;;;12.80;55.50
17649;BME280;8943;51.110;-4.158;2022-12-29T11:37:00;99879.00;;;12.94;54.77
17649;BME280;8943;51.110;-4.158;2022-12-29T11:39:33;99895.50;;;13.07;54.48
17649;BME280;8943;51.110;-4.158;2022-12-29T11:42:02;99887.75;;;13.14;54.12
17649;BME280;8943;51.110;-4.158;2022-12-29T11:44:36;99885.44;;;13.29;53.49
17649;BME280;8943;51.110;-4.158;2022-12-29T11:47:05;99893.47;;;13.29;53.65
17649;BME280;8943;51.110;-4.158;2022-12-29T11:49:36;99909.00;;;13.43;53.64
17649;BME280;8943;51.110;-4.158;2022-12-29T11:52:06;99888.38;;;13.53;53.69
17649;BME280;8943;51.110;-4.158;2022-12-29T11:54:37;99896.06;;;13.56;53.46
17649;BME280;8943;51.110;-4.158;2022-12-29T11:57:11;99899.63;;;13.57;53.39
17649;BME280;8943;51.110;-4.158;2022-12-29T11:59:42;99899.06;;;13.53;53.53
17649;BME280;8943;51.110;-4.158;2022-12-29T12:05:25;99897.22;;;13.54;53.50
17649;BME280;8943;51.110;-4.158;2022-12-29T12:08:03;99895.09;;;13.57;52.74
17649;BME280;8943;51.110;-4.158;2022-12-29T12:10:38;99914.91;;;13.64;52.88
17649;BME280;8943;51.110;-4.158;2022-12-29T12:13:23;99908.53;;;13.65;52.58
17649;BME280;8943;51.110;-4.158;2022-12-29T12:16:00;99900.97;;;13.79;52.25
17649;BME280;8943;51.110;-4.158;2022-12-29T12:18:39;99906.41;;;13.87;52.55
17649;BME280;8943;51.110;-4.158;2022-12-29T12:21:16;99909.16;;;13.95;52.10
17649;BME280;8943;51.110;-4.158;2022-12-29T12:24:22;99920.31;;;14.08;51.58
17649;BME280;8943;51.110;-4.158;2022-12-29T12:26:58;99942.81;;;14.15;51.72
17649;BME280;8943;51.110;-4.158;2022-12-29T12:29:35;99911.41;;;14.26;51.64
17649;BME280;8943;51.110;-4.158;2022-12-29T12:32:14;99919.84;;;14.31;51.23
17649;BME280;8943;51.110;-4.158;2022-12-29T12:34:45;99923.97;;;14.25;51.27
17649;BME280;8943;51.110;-4.158;2022-12-29T12:37:34;99914.31;;;14.14;51.72
17649;BME280;8943;51.110;-4.158;2022-12-29T12:40:21;99918.44;;;13.83;52.07
17649;BME280;8943;51.110;-4.158;2022-12-29T12:43:03;99936.38;;;13.55;52.59
17649;BME280;8943;51.110;-4.158;2022-12-29T12:45:48;99914.34;;;13.43;51.76
17649;BME280;8943;51.110;-4.158;2022-12-29T12:48:37;99920.69;;;13.42;52.24
17649;BME280;8943;51.110;-4.158;2022-12-29T12:51:19;99939.16;;;13.35;51.92
17649;BME280;8943;51.110;-4.158;2022-12-29T12:54:02;99927.97;;;13.22;52.03
17649;BME280;8943;51.110;-4.158;2022-12-29T12:56:44;99947.13;;;13.18;51.98
17649;BME280;8943;51.110;-4.158;2022-12-29T12:59:27;99925.31;;;13.12;52.35
17649;BME280;8943;51.110;-4.158;2022-12-29T13:02:01;99920.44;;;13.08;51.98
17649;BME280;8943;51.110;-4.158;2022-12-29T13:08:12;99934.78;;;13.07;52.55
17649;BME280;8943;51.110;-4.158;2022-12-29T13:10:49;99920.44;;;13.08;52.82
17649;BME280;8943;51.110;-4.158;2022-12-29T13:13:39;99945.47;;;13.07;52.19
17649;BME280;8943;51.110;-4.158;2022-12-29T13:16:13;99927.06;;;13.04;52.11
17649;BME280;8943;51.110;-4.158;2022-12-29T13:18:50;99924.91;;;13.07;52.11
17649;BME280;8943;51.110;-4.158;2022-12-29T13:21:30;99920.28;;;13.09;52.24
17649;BME280;8943;51.110;-4.158;2022-12-29T13:24:07;99937.72;;;13.23;52.25
17649;BME280;8943;51.110;-4.158;2022-12-29T13:26:44;99968.59;;;13.35;52.11
17649;BME280;8943;51.110;-4.158;2022-12-29T13:29:20;99943.78;;;13.43;52.73
17649;BME280;8943;51.110;-4.158;2022-12-29T13:31:56;99929.91;;;13.57;52.79
17649;BME280;8943;51.110;-4.158;2022-12-29T13:34:36;99926.44;;;13.65;53.08
17649;BME280;8943;51.110;-4.158;2022-12-29T13:37:10;99939.63;;;13.76;53.14
17649;BME280;8943;51.110;-4.158;2022-12-29T13:39:44;99936.00;;;13.85;52.77
17649;BME280;8943;51.110;-4.158;2022-12-29T13:42:14;99938.56;;;13.87;51.98
17649;BME280;8943;51.110;-4.158;2022-12-29T13:44:46;99940.69;;;14.01;51.91
17649;BME280;8943;51.110;-4.158;2022-12-29T13:47:23;99943.97;;;14.13;51.36
17649;BME280;8943;51.110;-4.158;2022-12-29T13:49:57;99937.13;;;14.18;51.20
17649;BME280;8943;51.110;-4.158;2022-12-29T13:52:32;99956.34;;;14.32;50.54
17649;BME280;8943;51.110;-4.158;2022-12-29T13:55:21;99937.97;;;14.37;50.24
17649;BME280;8943;51.110;-4.158;2022-12-29T13:57:54;99940.00;;;14.43;49.80
17649;BME280;8943;51.110;-4.158;2022-12-29T14:00:26;99935.34;;;14.45;49.99
17649;BME280;8943;51.110;-4.158;2022-12-29T14:03:17;99941.47;;;14.37;49.96